createdAt,value
2017-11-11T00:02:21.377Z,6.70
2017-11-11T00:04:47.624Z,7.37
2017-11-11T00:07:14.722Z,7.68
2017-11-11T00:09:41.703Z,6.35
2017-11-11T00:12:08.066Z,5.28
2017-11-11T00:14:34.647Z,6.72
2017-11-11T00:17:01.528Z,5.93
2017-11-11T00:19:27.784Z,6.05
2017-11-11T00:21:56.175Z,6.32
2017-11-11T00:24:23.166Z,5.75
2017-11-11T00:26:49.567Z,5.03
2017-11-11T00:29:15.847Z,5.55
2017-11-11T00:31:42.107Z,6.70
2017-11-11T00:34:08.360Z,6.32
2017-11-11T00:36:34.666Z,6.90
2017-11-11T00:39:01.272Z,10.25
2017-11-11T00:41:28.319Z,9.00
2017-11-11T00:43:54.573Z,6.78
2017-11-11T00:46:21.562Z,6.87
2017-11-11T00:48:49.051Z,7.82
2017-11-11T00:51:16.024Z,5.97
2017-11-11T00:53:42.355Z,6.95
2017-11-11T00:56:08.634Z,6.82
2017-11-11T00:58:35.411Z,6.47
2017-11-11T01:01:02.423Z,6.75
2017-11-11T01:03:28.682Z,6.68
2017-11-11T01:05:57.169Z,6.65
2017-11-11T01:08:23.471Z,7.12
2017-11-11T01:10:49.730Z,7.32
2017-11-11T01:13:15.992Z,7.03
2017-11-11T01:15:42.191Z,8.02
2017-11-11T01:18:08.435Z,9.98
2017-11-11T01:20:34.683Z,11.02
2017-11-11T01:23:01.042Z,8.57
2017-11-11T01:25:27.300Z,11.52
2017-11-11T01:27:53.536Z,8.65
2017-11-11T01:33:23.118Z,8.00
2017-11-11T01:35:49.434Z,8.25
2017-11-11T01:38:16.495Z,8.27
2017-11-11T01:40:43.498Z,9.30
2017-11-11T01:43:09.911Z,8.80
2017-11-11T01:45:36.213Z,8.75
2017-11-11T01:48:02.523Z,8.52
2017-11-11T01:50:29.547Z,8.57
2017-11-11T01:52:55.804Z,8.30
2017-11-11T01:55:22.405Z,8.60
2017-11-11T01:57:48.672Z,7.80
2017-11-11T02:00:14.963Z,7.75
2017-11-11T02:02:41.224Z,8.15
2017-11-11T02:05:08.248Z,7.32
2017-11-11T02:07:34.528Z,7.90
2017-11-11T02:10:00.862Z,7.97
2017-11-11T02:12:26.944Z,6.97
2017-11-11T02:14:53.747Z,6.85
2017-11-11T02:17:20.255Z,7.82
2017-11-11T02:19:46.413Z,6.90
2017-11-11T02:22:12.486Z,7.80
2017-11-11T02:24:38.579Z,7.05
2017-11-11T02:27:05.363Z,8.10
2017-11-11T02:29:31.421Z,8.35
2017-11-11T02:31:57.487Z,7.05
2017-11-11T02:34:23.569Z,6.62
2017-11-11T02:36:49.647Z,8.80
2017-11-11T02:39:15.741Z,7.00
2017-11-11T02:41:42.524Z,7.18
2017-11-11T02:44:08.585Z,8.15
2017-11-11T02:46:34.810Z,6.72
2017-11-11T02:49:00.925Z,7.25
2017-11-11T02:51:27.746Z,6.57
2017-11-11T02:53:58.665Z,7.60
2017-11-11T02:56:25.732Z,6.78
2017-11-11T02:58:51.917Z,6.55
2017-11-11T03:01:17.976Z,5.68
2017-11-11T03:03:44.022Z,7.10
2017-11-11T03:06:10.124Z,6.72
2017-11-11T03:08:36.207Z,6.55
2017-11-11T03:11:02.341Z,7.65
2017-11-11T03:13:28.459Z,6.12
2017-11-11T03:15:54.574Z,6.43
2017-11-11T03:18:21.392Z,6.57
2017-11-11T03:20:47.458Z,7.43
2017-11-11T03:23:13.561Z,6.32
2017-11-11T03:25:40.417Z,6.20
2017-11-11T03:28:06.499Z,5.45
2017-11-11T03:30:32.559Z,6.45
2017-11-11T03:32:58.639Z,6.07
2017-11-11T03:35:24.720Z,6.55
2017-11-11T03:37:50.964Z,6.65
2017-11-11T03:40:17.060Z,5.95
2017-11-11T03:42:43.164Z,7.18
2017-11-11T03:45:09.218Z,5.32
2017-11-11T03:47:35.277Z,6.65
2017-11-11T03:50:01.349Z,7.62
2017-11-11T03:52:27.419Z,7.68
2017-11-11T03:54:53.496Z,7.00
2017-11-11T03:57:19.562Z,5.82
2017-11-11T03:59:45.603Z,7.50
2017-11-11T04:02:11.836Z,5.80
2017-11-11T04:04:37.967Z,7.60
2017-11-11T04:07:04.048Z,6.62
2017-11-11T04:09:30.117Z,5.22
2017-11-11T04:11:56.953Z,5.95
2017-11-11T04:14:23.068Z,7.47
2017-11-11T04:16:49.118Z,6.00
2017-11-11T04:19:15.986Z,6.22
2017-11-11T04:21:42.264Z,5.87
2017-11-11T04:24:08.524Z,6.45
2017-11-11T04:26:34.877Z,6.18
2017-11-11T04:29:01.122Z,6.12
2017-11-11T04:31:27.398Z,5.32
2017-11-11T04:33:54.442Z,6.78
2017-11-11T04:36:20.658Z,7.50
2017-11-11T04:38:47.704Z,6.20
2017-11-11T04:41:13.969Z,6.45
2017-11-11T04:43:40.362Z,6.95
2017-11-11T04:46:06.717Z,7.07
2017-11-11T04:48:33.018Z,5.82
2017-11-11T04:50:59.276Z,6.70
2017-11-11T04:53:25.655Z,5.53
2017-11-11T04:55:51.908Z,6.20
2017-11-11T04:58:18.167Z,6.22
2017-11-11T05:00:44.472Z,5.25
2017-11-11T05:03:10.756Z,5.93
2017-11-11T05:05:37.055Z,6.72
2017-11-11T05:08:03.312Z,5.80
2017-11-11T05:10:29.632Z,5.80
2017-11-11T05:12:55.923Z,6.28
2017-11-11T05:15:22.272Z,6.12
2017-11-11T05:17:48.540Z,5.50
2017-11-11T05:20:14.821Z,4.95
2017-11-11T05:22:41.098Z,4.80
2017-11-11T05:25:07.396Z,5.05
2017-11-11T05:27:33.679Z,6.57
2017-11-11T05:30:00.703Z,5.47
2017-11-11T05:32:27.002Z,4.90
2017-11-11T05:34:53.326Z,5.03
2017-11-11T05:37:19.609Z,4.72
2017-11-11T05:39:46.640Z,4.37
2017-11-11T05:42:12.915Z,4.90
2017-11-11T05:44:39.333Z,4.12
2017-11-11T05:47:05.603Z,4.53
2017-11-11T05:49:31.896Z,4.50
2017-11-11T05:51:58.210Z,4.82
2017-11-11T05:54:24.475Z,4.70
2017-11-11T05:56:50.737Z,4.10
2017-11-11T05:59:17.030Z,4.97
2017-11-11T06:01:43.321Z,4.55
2017-11-11T06:04:09.854Z,4.55
2017-11-11T06:06:36.173Z,6.53
2017-11-11T06:09:03.186Z,3.97
2017-11-11T06:11:29.452Z,4.07
2017-11-11T06:13:57.563Z,4.55
2017-11-11T06:16:23.819Z,3.90
2017-11-11T06:18:50.106Z,4.50
2017-11-11T06:21:16.414Z,4.47
2017-11-11T06:23:43.639Z,4.55
2017-11-11T06:26:09.892Z,3.80
2017-11-11T06:28:36.942Z,3.10
2017-11-11T06:31:03.987Z,4.68
2017-11-11T06:33:30.283Z,4.47
2017-11-11T06:35:56.564Z,3.70
2017-11-11T06:38:22.871Z,3.85
2017-11-11T06:40:49.140Z,4.07
2017-11-11T06:43:16.484Z,3.40
2017-11-11T06:45:42.735Z,4.37
2017-11-11T06:48:09.015Z,3.45
2017-11-11T06:50:36.023Z,4.32
2017-11-11T06:53:02.294Z,4.60
2017-11-11T06:55:28.579Z,3.62
2017-11-11T06:57:54.863Z,3.70
2017-11-11T07:00:21.170Z,3.50
2017-11-11T07:02:48.232Z,4.68
2017-11-11T07:05:14.521Z,4.37
2017-11-11T07:07:40.809Z,3.60
2017-11-11T07:10:07.836Z,6.85
2017-11-11T07:12:34.190Z,6.00
2017-11-11T07:15:00.475Z,4.30
2017-11-11T07:17:27.647Z,4.80
2017-11-11T07:19:54.080Z,4.82
2017-11-11T07:22:20.341Z,5.72
2017-11-11T07:24:46.581Z,5.95
2017-11-11T07:27:12.827Z,5.95
2017-11-11T07:29:39.814Z,5.40
2017-11-11T07:32:06.095Z,6.00
2017-11-11T07:34:33.101Z,5.35
2017-11-11T07:36:59.408Z,6.55
2017-11-11T07:39:25.751Z,7.03
2017-11-11T07:41:52.116Z,6.32
2017-11-11T07:44:19.722Z,5.87
2017-11-11T07:46:46.031Z,5.60
2017-11-11T07:49:12.314Z,5.75
2017-11-11T07:51:38.629Z,5.87
2017-11-11T07:54:04.913Z,6.03
2017-11-11T07:56:31.933Z,6.15
2017-11-11T07:58:58.239Z,6.87
2017-11-11T08:01:24.515Z,5.37
2017-11-11T08:03:51.559Z,6.40
2017-11-11T08:06:18.573Z,6.30
2017-11-11T08:08:44.866Z,6.65
2017-11-11T08:11:11.139Z,7.50
2017-11-11T08:13:37.619Z,6.45
2017-11-11T08:16:03.929Z,5.87
2017-11-11T08:18:30.963Z,6.55
2017-11-11T08:20:57.256Z,5.78
2017-11-11T08:23:23.539Z,6.65
2017-11-11T08:25:49.932Z,7.12
2017-11-11T08:28:16.250Z,6.30
2017-11-11T08:30:42.539Z,5.55
2017-11-11T08:33:08.863Z,4.60
2017-11-11T08:35:35.146Z,5.40
2017-11-11T08:38:01.416Z,6.15
2017-11-11T08:40:27.704Z,5.28
2017-11-11T08:42:54.760Z,5.55
2017-11-11T08:45:21.023Z,6.00
2017-11-11T08:47:47.272Z,5.35
2017-11-11T08:50:13.537Z,5.30
2017-11-11T08:52:39.813Z,5.55
2017-11-11T08:55:06.082Z,5.70
2017-11-11T08:57:32.346Z,5.87
2017-11-11T08:59:59.819Z,5.50
2017-11-11T09:02:26.127Z,5.53
2017-11-11T09:04:52.691Z,5.05
2017-11-11T09:07:18.959Z,4.93
2017-11-11T09:09:45.355Z,5.62
2017-11-11T09:12:11.706Z,5.55
2017-11-11T09:14:38.104Z,6.53
2017-11-11T09:17:04.436Z,4.57
2017-11-11T09:19:30.733Z,4.87
2017-11-11T09:21:57.793Z,5.45
2017-11-11T09:24:24.092Z,5.15
2017-11-11T09:26:50.345Z,5.22
2017-11-11T09:29:17.364Z,4.80
2017-11-11T09:31:43.770Z,5.20
2017-11-11T09:34:10.117Z,4.95
2017-11-11T09:36:36.465Z,7.80
2017-11-11T09:39:04.468Z,6.85
2017-11-11T09:41:30.771Z,6.12
2017-11-11T09:43:57.055Z,7.22
2017-11-11T09:46:23.384Z,6.00
2017-11-11T09:48:49.712Z,5.57
2017-11-11T09:51:15.996Z,6.68
2017-11-11T09:53:42.332Z,5.35
2017-11-11T09:56:08.608Z,5.87
2017-11-11T09:58:34.905Z,5.55
2017-11-11T10:01:01.580Z,6.03
2017-11-11T10:03:27.968Z,5.07
2017-11-11T10:05:54.296Z,4.25
2017-11-11T10:08:20.575Z,4.95
2017-11-11T10:10:46.948Z,5.35
2017-11-11T10:13:13.235Z,5.68
2017-11-11T10:15:39.599Z,4.87
2017-11-11T10:18:05.973Z,5.50
2017-11-11T10:20:33.096Z,6.15
2017-11-11T10:23:00.167Z,4.80
2017-11-11T10:25:26.477Z,4.78
2017-11-11T10:27:52.809Z,5.10
2017-11-11T10:30:19.123Z,10.27
2017-11-11T10:32:45.425Z,8.10
2017-11-11T10:35:11.773Z,7.20
2017-11-11T10:37:38.085Z,5.15
2017-11-11T10:40:05.155Z,5.60
2017-11-11T10:42:31.418Z,4.45
2017-11-11T10:44:57.725Z,4.35
2017-11-11T10:47:24.738Z,8.27
2017-11-11T10:49:51.783Z,5.53
2017-11-11T10:52:18.888Z,6.72
2017-11-11T10:54:45.223Z,6.05
2017-11-11T10:57:11.545Z,6.43
2017-11-11T10:59:37.835Z,6.05
2017-11-11T11:02:04.106Z,5.00
2017-11-11T11:04:30.387Z,5.32
2017-11-11T11:06:57.465Z,5.85
2017-11-11T11:09:23.765Z,5.30
2017-11-11T11:11:50.066Z,6.25
2017-11-11T11:14:16.455Z,5.20
2017-11-11T11:16:42.746Z,5.53
2017-11-11T11:19:09.046Z,6.80
2017-11-11T11:21:35.320Z,6.70
2017-11-11T11:24:01.628Z,6.45
2017-11-11T11:26:27.910Z,6.97
2017-11-11T11:28:54.205Z,8.52
2017-11-11T11:31:20.829Z,7.68
2017-11-11T11:33:47.219Z,7.20
2017-11-11T11:36:13.587Z,7.15
2017-11-11T11:38:39.978Z,7.45
2017-11-11T11:41:07.062Z,7.32
2017-11-11T11:43:34.097Z,7.70
2017-11-11T11:46:00.380Z,7.50
2017-11-11T11:48:26.672Z,7.10
2017-11-11T11:50:53.006Z,7.18
2017-11-11T11:53:19.280Z,7.57
2017-11-11T11:55:45.567Z,7.62
2017-11-11T11:58:11.947Z,7.55
2017-11-11T12:00:39.135Z,7.32
2017-11-11T12:03:05.364Z,7.47
2017-11-11T12:05:31.649Z,8.55
2017-11-11T12:07:57.934Z,7.18
2017-11-11T12:10:24.239Z,7.57
2017-11-11T12:12:51.290Z,7.22
2017-11-11T12:15:17.679Z,7.25
2017-11-11T12:17:44.725Z,8.98
2017-11-11T12:20:11.011Z,7.60
2017-11-11T12:22:37.307Z,7.00
2017-11-11T12:25:04.350Z,8.18
2017-11-11T12:27:31.384Z,9.43
2017-11-11T12:29:58.446Z,9.65
2017-11-11T12:32:24.774Z,12.50
2017-11-11T12:34:51.837Z,9.88
2017-11-11T12:37:22.919Z,8.50
2017-11-11T12:39:49.225Z,7.87
2017-11-11T12:42:15.547Z,8.20
2017-11-11T12:44:42.035Z,8.18
2017-11-11T12:47:08.388Z,8.52
2017-11-11T12:49:34.717Z,7.30
2017-11-11T12:52:01.200Z,8.10
2017-11-11T12:54:27.518Z,7.28
2017-11-11T12:56:53.792Z,6.97
2017-11-11T12:59:20.083Z,6.75
2017-11-11T13:01:46.402Z,7.40
2017-11-11T13:04:12.738Z,6.12
2017-11-11T13:06:39.029Z,6.35
2017-11-11T13:09:06.065Z,6.70
2017-11-11T13:11:33.080Z,5.80
2017-11-11T13:13:59.423Z,5.30
2017-11-11T13:16:26.488Z,5.32
2017-11-11T13:18:53.613Z,5.72
2017-11-11T13:21:19.951Z,5.05
2017-11-11T13:23:47.041Z,6.95
2017-11-11T13:26:13.344Z,5.55
2017-11-11T13:28:40.366Z,5.22
2017-11-11T13:31:06.645Z,6.15
2017-11-11T13:33:33.045Z,6.10
2017-11-11T13:35:59.335Z,5.30
2017-11-11T13:38:25.599Z,7.07
2017-11-11T13:40:52.666Z,6.87
2017-11-11T13:43:18.984Z,8.85
2017-11-11T13:45:46.023Z,8.02
2017-11-11T13:48:12.543Z,10.15
2017-11-11T13:50:39.641Z,11.45
2017-11-11T13:53:05.955Z,9.50
2017-11-11T13:55:32.258Z,12.07
2017-11-11T13:57:58.544Z,12.93
2017-11-11T14:00:24.846Z,13.20
2017-11-11T14:02:51.241Z,9.98
2017-11-11T14:05:17.814Z,14.05
2017-11-11T14:07:44.108Z,14.00
2017-11-11T14:10:11.127Z,11.05
2017-11-11T14:12:37.386Z,10.15
2017-11-11T14:15:04.416Z,10.98
2017-11-11T14:17:30.901Z,12.68
2017-11-11T14:19:57.196Z,10.00
2017-11-11T14:22:24.200Z,9.85
2017-11-11T14:24:50.375Z,11.32
2017-11-11T14:27:16.919Z,10.82
2017-11-11T14:29:43.275Z,10.05
2017-11-11T14:32:10.475Z,10.57
2017-11-11T14:34:37.612Z,10.38
2017-11-11T14:37:03.967Z,10.57
2017-11-11T14:39:30.299Z,12.18
2017-11-11T14:41:57.413Z,10.60
2017-11-11T14:44:24.628Z,11.80
2017-11-11T14:46:50.889Z,13.05
2017-11-11T14:49:17.252Z,13.55
2017-11-11T14:51:43.534Z,15.15
2017-11-11T14:54:10.153Z,13.13
2017-11-11T14:56:36.531Z,13.62
2017-11-11T14:59:03.852Z,12.68
2017-11-11T15:01:30.137Z,13.13
2017-11-11T15:03:56.431Z,12.07
2017-11-11T15:06:23.446Z,13.95
2017-11-11T15:08:49.828Z,14.07
2017-11-11T15:11:16.844Z,14.35
2017-11-11T15:13:43.160Z,16.05
2017-11-11T15:16:09.504Z,17.25
2017-11-11T15:18:35.857Z,17.80
2017-11-11T15:21:02.887Z,17.95
2017-11-11T15:23:29.196Z,21.33
2017-11-11T15:25:55.506Z,19.67
2017-11-11T15:28:21.976Z,20.05
2017-11-11T15:30:49.049Z,20.90
2017-11-11T15:33:15.340Z,20.45
2017-11-11T15:35:41.617Z,21.25
2017-11-11T15:38:07.932Z,23.40
2017-11-11T15:40:34.218Z,23.75
2017-11-11T15:43:00.556Z,23.87
2017-11-11T15:45:27.638Z,23.67
2017-11-11T15:47:53.968Z,24.30
2017-11-11T15:50:20.282Z,23.17
2017-11-11T15:52:47.414Z,24.65
2017-11-11T15:55:13.763Z,26.40
2017-11-11T15:57:40.087Z,25.70
2017-11-11T16:00:07.135Z,27.45
2017-11-11T16:02:34.174Z,27.80
2017-11-11T16:05:01.206Z,20.45
2017-11-11T16:07:27.471Z,20.95
2017-11-11T16:09:53.771Z,21.92
2017-11-11T16:12:20.029Z,25.50
2017-11-11T16:14:46.351Z,26.87
2017-11-11T16:17:12.797Z,26.37
2017-11-11T16:19:39.059Z,26.98
2017-11-11T16:22:05.447Z,26.23
2017-11-11T16:24:31.814Z,25.62
2017-11-11T16:26:58.074Z,24.45
2017-11-11T16:29:25.132Z,23.08
2017-11-11T16:31:52.187Z,24.40
2017-11-11T16:34:18.575Z,23.83
2017-11-11T16:36:44.899Z,23.73
2017-11-11T16:39:11.171Z,24.83
2017-11-11T16:41:38.240Z,24.70
2017-11-11T16:44:04.524Z,24.12
2017-11-11T16:46:30.827Z,23.05
2017-11-11T16:48:57.152Z,21.00
2017-11-11T16:51:24.260Z,20.80
2017-11-11T16:53:50.548Z,21.67
2017-11-11T16:56:16.807Z,18.10
2017-11-11T16:58:43.856Z,19.10
2017-11-11T17:01:10.169Z,16.87
2017-11-11T17:03:37.328Z,20.58
2017-11-11T17:06:04.431Z,19.73
2017-11-11T17:08:30.704Z,22.27
2017-11-11T17:10:57.764Z,19.62
2017-11-11T17:13:24.094Z,18.95
2017-11-11T17:15:51.463Z,19.20
2017-11-11T17:18:17.737Z,19.30
2017-11-11T17:20:44.083Z,24.12
2017-11-11T17:23:10.357Z,25.55
2017-11-11T17:25:36.436Z,22.35
2017-11-11T17:28:02.518Z,19.17
2017-11-11T17:30:28.658Z,21.10
2017-11-11T17:32:54.770Z,22.10
2017-11-11T17:35:20.897Z,21.80
2017-11-11T17:37:47.000Z,20.55
2017-11-11T17:40:13.095Z,19.00
2017-11-11T17:42:39.175Z,20.40
2017-11-11T17:45:05.356Z,19.35
2017-11-11T17:47:31.502Z,19.48
2017-11-11T17:49:57.616Z,17.92
2017-11-11T17:52:23.687Z,15.05
2017-11-11T17:54:49.773Z,13.10
2017-11-11T17:57:15.859Z,16.17
2017-11-11T17:59:42.672Z,14.95
2017-11-11T18:02:10.156Z,14.65
2017-11-11T18:04:37.370Z,14.20
2017-11-11T18:07:03.633Z,13.62
2017-11-11T18:09:29.725Z,13.90
2017-11-11T18:11:56.568Z,15.13
2017-11-11T18:14:22.902Z,15.60
2017-11-11T18:16:49.220Z,18.00
2017-11-11T18:19:16.783Z,17.42
2017-11-11T18:21:43.070Z,17.75
2017-11-11T18:24:09.361Z,16.95
2017-11-11T18:26:37.475Z,16.30
2017-11-11T18:29:03.778Z,14.57
2017-11-11T18:31:30.225Z,17.17
2017-11-11T18:33:56.526Z,21.95
2017-11-11T18:36:23.559Z,18.60
2017-11-11T18:38:50.683Z,18.70
2017-11-11T18:41:16.957Z,18.60
2017-11-11T18:43:43.246Z,18.17
2017-11-11T18:46:09.670Z,19.17
2017-11-11T18:48:35.946Z,18.37
2017-11-11T18:51:02.979Z,19.58
2017-11-11T18:53:29.280Z,21.15
2017-11-11T18:55:55.559Z,22.10
2017-11-11T18:58:22.613Z,23.95
2017-11-11T19:00:48.887Z,23.70
2017-11-11T19:03:15.179Z,24.45
2017-11-11T19:05:41.620Z,24.90
2017-11-11T19:08:08.159Z,20.30
2017-11-11T19:10:34.447Z,22.85
2017-11-11T19:13:00.751Z,23.35
2017-11-11T19:15:27.855Z,24.73
2017-11-11T19:17:54.413Z,21.58
2017-11-11T19:20:20.699Z,21.58
2017-11-11T19:22:47.344Z,21.73
2017-11-11T19:25:13.664Z,24.65
2017-11-11T19:27:39.992Z,23.15
2017-11-11T19:30:06.098Z,23.27
2017-11-11T19:32:32.212Z,24.95
2017-11-11T19:34:58.426Z,22.67
2017-11-11T19:37:24.495Z,23.23
2017-11-11T19:39:50.627Z,22.90
2017-11-11T19:42:16.691Z,27.27
2017-11-11T19:44:42.817Z,24.58
2017-11-11T19:47:09.065Z,21.90
2017-11-11T19:49:35.487Z,26.10
2017-11-11T19:52:01.680Z,24.95
2017-11-11T19:54:27.811Z,28.17
2017-11-11T19:56:53.890Z,32.33
2017-11-11T19:59:20.045Z,26.42
2017-11-11T20:01:46.213Z,23.20
2017-11-11T20:04:13.127Z,22.45
2017-11-11T20:06:39.272Z,24.17
2017-11-11T20:09:05.383Z,24.52
2017-11-11T20:11:31.464Z,28.33
2017-11-11T20:13:57.551Z,24.75
2017-11-11T20:16:23.646Z,23.62
2017-11-11T20:18:49.724Z,25.55
2017-11-11T20:21:15.775Z,23.45
2017-11-11T20:23:41.858Z,24.08
2017-11-11T20:26:07.935Z,23.00
2017-11-11T20:28:34.041Z,23.23
2017-11-11T20:31:00.320Z,23.52
2017-11-11T20:33:26.645Z,23.15
2017-11-11T20:35:52.953Z,22.37
2017-11-11T20:38:19.318Z,23.87
2017-11-11T20:40:46.472Z,21.10
2017-11-11T20:43:12.735Z,22.30
2017-11-11T20:45:39.081Z,22.95
2017-11-11T20:48:06.203Z,21.83
2017-11-11T20:50:32.489Z,23.17
2017-11-11T20:52:58.869Z,22.60
2017-11-11T20:55:24.953Z,21.48
2017-11-11T20:57:51.839Z,22.23
2017-11-11T21:00:17.903Z,24.35
2017-11-11T21:02:44.149Z,26.85
2017-11-11T21:05:10.447Z,25.50
2017-11-11T21:07:36.759Z,25.23
2017-11-11T21:10:03.213Z,25.60
2017-11-11T21:12:29.531Z,25.55
2017-11-11T21:14:55.880Z,27.45
2017-11-11T21:17:22.118Z,28.30
2017-11-11T21:19:49.144Z,29.35
2017-11-11T21:22:15.645Z,27.83
2017-11-11T21:24:42.036Z,24.90
2017-11-11T21:27:09.098Z,25.85
2017-11-11T21:29:35.470Z,24.27
2017-11-11T21:32:01.754Z,22.37
2017-11-11T21:34:27.928Z,24.80
2017-11-11T21:36:54.145Z,25.52
2017-11-11T21:39:20.219Z,25.90
2017-11-11T21:41:46.290Z,25.62
2017-11-11T21:44:12.379Z,25.10
2017-11-11T21:46:38.491Z,28.73
2017-11-11T21:49:05.373Z,24.37
2017-11-11T21:51:31.711Z,26.85
2017-11-11T21:53:58.002Z,26.55
2017-11-11T21:56:24.310Z,24.90
2017-11-11T21:58:50.599Z,31.65
2017-11-11T22:01:16.923Z,30.23
2017-11-11T22:03:43.218Z,26.65
2017-11-11T22:06:09.480Z,25.58
2017-11-11T22:08:35.759Z,23.87
2017-11-11T22:11:02.784Z,24.65
2017-11-11T22:13:29.378Z,24.65
2017-11-11T22:15:55.703Z,26.48
2017-11-11T22:18:22.056Z,26.87
2017-11-11T22:20:48.168Z,27.85
2017-11-11T22:23:14.240Z,25.77
2017-11-11T22:25:41.060Z,28.50
2017-11-11T22:28:07.213Z,25.80
2017-11-11T22:30:34.068Z,24.15
2017-11-11T22:33:00.126Z,27.70
2017-11-11T22:35:26.306Z,27.75
2017-11-11T22:37:52.700Z,24.48
2017-11-11T22:40:19.747Z,26.08
2017-11-11T22:42:46.016Z,26.20
2017-11-11T22:45:13.059Z,34.50
2017-11-11T22:47:39.343Z,33.40
2017-11-11T22:50:05.713Z,27.27
2017-11-11T22:52:32.695Z,26.00
2017-11-11T22:54:58.973Z,26.42
2017-11-11T22:57:25.275Z,28.90
2017-11-11T22:59:51.614Z,24.98
2017-11-11T23:02:17.866Z,29.75
2017-11-11T23:04:44.938Z,26.50
2017-11-11T23:07:11.258Z,26.77
2017-11-11T23:09:37.538Z,24.67
2017-11-11T23:12:03.852Z,25.55
2017-11-11T23:14:30.235Z,27.35
2017-11-11T23:16:57.284Z,26.48
2017-11-11T23:19:23.558Z,27.75
2017-11-11T23:21:49.666Z,27.80
2017-11-11T23:24:15.735Z,27.67
2017-11-11T23:26:41.820Z,25.60
2017-11-11T23:29:07.911Z,25.27
2017-11-11T23:31:34.709Z,27.92
2017-11-11T23:34:00.790Z,24.30
2017-11-11T23:36:26.856Z,25.80
2017-11-11T23:38:52.911Z,25.67
2017-11-11T23:41:19.725Z,26.35
2017-11-11T23:43:45.869Z,24.83
2017-11-11T23:46:12.943Z,25.65
2017-11-11T23:48:39.918Z,25.45
2017-11-11T23:51:06.196Z,27.23
2017-11-11T23:53:32.524Z,25.30
2017-11-11T23:55:59.566Z,26.50
2017-11-11T23:58:26.591Z,25.70
